createdAt,value
2023-05-01T00:00:14.393Z,6
2023-05-01T00:01:14.842Z,6
2023-05-01T00:02:15.361Z,4
2023-05-01T00:03:14.646Z,4
2023-05-01T00:04:15.763Z,4
2023-05-01T00:05:15.452Z,4
2023-05-01T00:06:14.893Z,4
2023-05-01T00:07:15.018Z,5
2023-05-01T00:08:14.325Z,5
2023-05-01T00:09:14.899Z,5
2023-05-01T00:10:14.910Z,5
2023-05-01T00:11:15.218Z,5
2023-05-01T00:12:14.299Z,3
2023-05-01T00:13:13.226Z,3
2023-05-01T00:14:14.472Z,3
2023-05-01T00:15:14.293Z,3
2023-05-01T00:16:14.944Z,3
2023-05-01T00:17:14.729Z,1
2023-05-01T00:18:15.195Z,1
2023-05-01T00:19:15.065Z,1
2023-05-01T00:20:14.582Z,1
2023-05-01T00:21:14.790Z,1
2023-05-01T00:22:15.099Z,3
2023-05-01T00:23:14.434Z,3
2023-05-01T00:24:14.549Z,3
2023-05-01T00:25:14.659Z,3
2023-05-01T00:26:14.158Z,3
2023-05-01T00:27:14.574Z,5
2023-05-01T00:28:15.063Z,5
2023-05-01T00:29:14.950Z,5
2023-05-01T00:30:14.555Z,5
2023-05-01T00:31:14.963Z,5
2023-05-01T00:32:15.207Z,3
2023-05-01T00:33:14.897Z,3
2023-05-01T00:34:14.878Z,3
2023-05-01T00:35:15.166Z,3
2023-05-01T00:36:14.923Z,3
2023-05-01T00:37:14.391Z,5
2023-05-01T00:38:14.601Z,5
2023-05-01T00:39:13.843Z,5
2023-05-01T00:40:15.149Z,5
2023-05-01T00:41:15.096Z,5
2023-05-01T00:42:15.206Z,1
2023-05-01T00:43:14.394Z,1
2023-05-01T00:44:14.552Z,1
2023-05-01T00:45:14.802Z,1
2023-05-01T00:46:15.347Z,1
2023-05-01T00:47:14.638Z,5
2023-05-01T00:48:15.477Z,5
2023-05-01T00:49:15.181Z,5
2023-05-01T00:50:14.413Z,5
2023-05-01T00:51:14.845Z,5
2023-05-01T00:52:14.972Z,4
2023-05-01T00:53:14.935Z,4
2023-05-01T00:54:14.529Z,4
2023-05-01T00:55:14.823Z,4
2023-05-01T00:56:15.155Z,4
2023-05-01T00:57:14.470Z,4
2023-05-01T00:58:14.492Z,4
2023-05-01T00:59:14.658Z,4
2023-05-01T01:00:14.520Z,4
2023-05-01T01:01:14.720Z,4
2023-05-01T01:02:14.613Z,5
2023-05-01T01:03:15.301Z,5
2023-05-01T01:04:15.440Z,5
2023-05-01T01:05:14.490Z,5
2023-05-01T01:06:15.244Z,5
2023-05-01T01:07:14.473Z,4
2023-05-01T01:08:14.773Z,4
2023-05-01T01:09:14.732Z,4
2023-05-01T01:10:14.455Z,4
2023-05-01T01:11:14.371Z,4
2023-05-01T01:12:14.980Z,6
2023-05-01T01:13:15.102Z,6
2023-05-01T01:14:14.120Z,6
2023-05-01T01:15:14.813Z,6
2023-05-01T01:16:14.964Z,6
2023-05-01T01:17:15.068Z,5
2023-05-01T01:18:14.869Z,5
2023-05-01T01:19:14.598Z,5
2023-05-01T01:20:14.993Z,5
2023-05-01T01:21:15.251Z,5
2023-05-01T01:22:15.174Z,11
2023-05-01T01:23:14.720Z,11
2023-05-01T01:24:14.629Z,11
2023-05-01T01:25:14.830Z,11
2023-05-01T01:26:15.236Z,11
2023-05-01T01:27:14.119Z,6
2023-05-01T01:28:15.026Z,6
2023-05-01T01:29:15.158Z,6
2023-05-01T01:30:15.251Z,6
2023-05-01T01:31:14.968Z,6
2023-05-01T01:32:14.514Z,5
2023-05-01T01:33:15.114Z,5
2023-05-01T01:34:15.072Z,5
2023-05-01T01:35:14.373Z,5
2023-05-01T01:36:14.712Z,5
2023-05-01T01:37:15.052Z,4
2023-05-01T01:38:15.212Z,4
2023-05-01T01:39:14.245Z,4
2023-05-01T01:40:14.549Z,4
2023-05-01T01:41:14.660Z,4
2023-05-01T01:42:14.927Z,5
2023-05-01T01:43:14.969Z,5
2023-05-01T01:44:14.522Z,5
2023-05-01T01:45:14.899Z,5
2023-05-01T01:46:15.309Z,5
2023-05-01T01:47:14.487Z,7
2023-05-01T01:48:14.854Z,7
2023-05-01T01:49:14.969Z,7
2023-05-01T01:50:15.235Z,7
2023-05-01T01:51:15.279Z,7
2023-05-01T01:52:14.416Z,5
2023-05-01T01:53:14.463Z,5
2023-05-01T01:54:14.804Z,5
2023-05-01T01:55:15.319Z,5
2023-05-01T01:56:15.339Z,5
2023-05-01T01:57:14.428Z,4
2023-05-01T01:58:14.426Z,4
2023-05-01T01:59:14.876Z,4
2023-05-01T02:00:15.154Z,4
2023-05-01T02:01:14.436Z,4
2023-05-01T02:02:15.087Z,5
2023-05-01T02:03:15.550Z,5
2023-05-01T02:04:15.847Z,5
2023-05-01T02:05:14.135Z,5
2023-05-01T02:06:14.742Z,5
2023-05-01T02:07:14.879Z,9
2023-05-01T02:08:15.317Z,9
2023-05-01T02:09:14.746Z,9
2023-05-01T02:10:14.739Z,9
2023-05-01T02:11:14.264Z,9
2023-05-01T02:12:14.224Z,5
2023-05-01T02:13:14.720Z,5
2023-05-01T02:14:15.064Z,5
2023-05-01T02:15:15.046Z,5
2023-05-01T02:16:14.501Z,5
2023-05-01T02:17:14.842Z,3
2023-05-01T02:18:14.992Z,3
2023-05-01T02:19:15.077Z,3
2023-05-01T02:20:14.524Z,3
2023-05-01T02:21:14.556Z,3
2023-05-01T02:22:14.848Z,7
2023-05-01T02:23:14.794Z,7
2023-05-01T02:24:14.464Z,7
2023-05-01T02:25:14.506Z,7
2023-05-01T02:26:14.606Z,7
2023-05-01T02:27:15.100Z,6
2023-05-01T02:28:15.063Z,6
2023-05-01T02:29:15.130Z,6
2023-05-01T02:30:14.898Z,6
2023-05-01T02:31:14.768Z,6
2023-05-01T02:32:15.282Z,6
2023-05-01T02:33:14.572Z,6
2023-05-01T02:34:14.552Z,6
2023-05-01T02:35:14.602Z,6
2023-05-01T02:36:15.048Z,6
2023-05-01T02:37:15.303Z,4
2023-05-01T02:38:14.228Z,4
2023-05-01T02:39:14.272Z,4
2023-05-01T02:40:14.852Z,4
2023-05-01T02:41:14.618Z,4
2023-05-01T02:42:14.303Z,4
2023-05-01T02:43:14.463Z,4
2023-05-01T02:44:14.911Z,4
2023-05-01T02:45:15.086Z,4
2023-05-01T02:46:15.193Z,4
2023-05-01T02:47:15.422Z,5
2023-05-01T02:48:14.565Z,5
2023-05-01T02:49:14.392Z,5
2023-05-01T02:50:15.431Z,5
2023-05-01T02:51:14.436Z,5
2023-05-01T02:52:14.738Z,4
2023-05-01T02:53:15.036Z,4
2023-05-01T02:54:15.137Z,4
2023-05-01T02:55:14.556Z,4
2023-05-01T02:56:14.586Z,4
2023-05-01T02:57:14.571Z,4
2023-05-01T02:58:14.784Z,4
2023-05-01T02:59:14.414Z,4
2023-05-01T03:00:14.551Z,4
2023-05-01T03:01:14.825Z,4
2023-05-01T03:02:15.075Z,3
2023-05-01T03:03:14.582Z,3
2023-05-01T03:04:14.607Z,3
2023-05-01T03:05:14.649Z,3
2023-05-01T03:06:14.976Z,3
2023-05-01T03:07:14.846Z,4
2023-05-01T03:08:14.309Z,4
2023-05-01T03:09:14.691Z,4
2023-05-01T03:10:15.073Z,4
2023-05-01T03:11:15.094Z,4
2023-05-01T03:12:15.167Z,3
2023-05-01T03:13:14.488Z,3
2023-05-01T03:14:17.609Z,3
2023-05-01T03:16:15.261Z,3
2023-05-01T03:17:14.271Z,1
2023-05-01T03:18:14.611Z,1
2023-05-01T03:19:14.873Z,1
2023-05-01T03:20:14.268Z,1
2023-05-01T03:21:15.012Z,1
2023-05-01T03:22:15.391Z,4
2023-05-01T03:23:14.433Z,4
2023-05-01T03:24:14.672Z,4
2023-05-01T03:25:15.015Z,4
2023-05-01T03:26:14.354Z,4
2023-05-01T03:27:14.352Z,3
2023-05-01T03:28:14.485Z,3
2023-05-01T03:29:14.907Z,3
2023-05-01T03:30:14.623Z,3
2023-05-01T03:31:14.625Z,3
2023-05-01T03:32:15.643Z,1
2023-05-01T03:33:14.583Z,1
2023-05-01T03:34:14.684Z,1
2023-05-01T03:35:15.554Z,1
2023-05-01T03:36:15.169Z,1
2023-05-01T03:37:14.348Z,6
2023-05-01T03:38:14.811Z,6
2023-05-01T03:39:15.080Z,6
2023-05-01T03:40:14.432Z,6
2023-05-01T03:41:14.438Z,6
2023-05-01T03:42:14.274Z,5
2023-05-01T03:43:14.888Z,5
2023-05-01T03:44:14.200Z,5
2023-05-01T03:45:14.644Z,5
2023-05-01T03:46:14.986Z,5
2023-05-01T03:47:15.066Z,3
2023-05-01T03:48:15.261Z,3
2023-05-01T03:49:14.287Z,3
2023-05-01T03:50:15.045Z,3
2023-05-01T03:51:14.690Z,3
2023-05-01T03:52:15.007Z,3
2023-05-01T03:53:14.264Z,3
2023-05-01T03:54:14.551Z,3
2023-05-01T03:55:14.773Z,3
2023-05-01T03:56:15.080Z,3
2023-05-01T03:57:14.569Z,4
2023-05-01T03:58:15.080Z,4
2023-05-01T03:59:15.181Z,4
2023-05-01T04:00:14.611Z,4
2023-05-01T04:01:14.533Z,4
2023-05-01T04:02:14.771Z,4
2023-05-01T04:03:15.362Z,4
2023-05-01T04:04:15.793Z,4
2023-05-01T04:05:14.197Z,4
2023-05-01T04:06:15.562Z,4
2023-05-01T04:07:14.300Z,3
2023-05-01T04:08:15.083Z,3
2023-05-01T04:09:15.014Z,3
2023-05-01T04:10:15.314Z,3
2023-05-01T04:11:14.470Z,3
2023-05-01T04:12:14.703Z,3
2023-05-01T04:13:15.037Z,3
2023-05-01T04:14:15.281Z,3
2023-05-01T04:15:17.447Z,3
2023-05-01T04:16:14.858Z,3
2023-05-01T04:17:14.744Z,4
2023-05-01T04:18:15.328Z,4
2023-05-01T04:19:15.040Z,4
2023-05-01T04:20:14.414Z,4
2023-05-01T04:21:14.433Z,4
2023-05-01T04:22:14.829Z,4
2023-05-01T04:23:15.098Z,4
2023-05-01T04:24:14.212Z,4
2023-05-01T04:25:14.982Z,4
2023-05-01T04:26:15.036Z,4
2023-05-01T04:27:14.540Z,1
2023-05-01T04:28:14.334Z,1
2023-05-01T04:29:14.654Z,1
2023-05-01T04:30:15.117Z,1
2023-05-01T04:31:14.158Z,1
2023-05-01T04:32:14.644Z,1
2023-05-01T04:33:14.790Z,1
2023-05-01T04:34:14.883Z,1
2023-05-01T04:35:15.457Z,1
2023-05-01T04:36:14.421Z,1
2023-05-01T04:37:14.286Z,3
2023-05-01T04:38:15.009Z,3
2023-05-01T04:39:15.018Z,3
2023-05-01T04:40:17.740Z,3
2023-05-01T04:41:14.659Z,3
2023-05-01T04:42:14.900Z,0
2023-05-01T04:43:15.314Z,0
2023-05-01T04:44:14.419Z,0
2023-05-01T04:45:14.634Z,0
2023-05-01T04:46:15.014Z,0
2023-05-01T04:47:15.640Z,0
2023-05-01T04:48:14.446Z,0
2023-05-01T04:49:14.758Z,0
2023-05-01T04:50:15.249Z,0
2023-05-01T04:51:14.342Z,0
2023-05-01T04:52:14.438Z,3
2023-05-01T04:53:15.187Z,3
2023-05-01T04:54:14.167Z,3
2023-05-01T04:55:14.478Z,3
2023-05-01T04:56:14.572Z,3
2023-05-01T04:57:15.089Z,0
2023-05-01T04:58:14.496Z,0
2023-05-01T04:59:14.553Z,0
2023-05-01T05:00:14.959Z,0
2023-05-01T05:01:15.077Z,0
2023-05-01T05:02:15.397Z,4
2023-05-01T05:03:15.228Z,4
2023-05-01T05:04:15.618Z,4
2023-05-01T05:05:14.971Z,4
2023-05-01T05:06:14.525Z,4
2023-05-01T05:07:14.320Z,1
2023-05-01T05:08:14.854Z,1
2023-05-01T05:09:15.369Z,1
2023-05-01T05:10:15.267Z,1
2023-05-01T05:11:14.624Z,1
2023-05-01T05:12:14.794Z,3
2023-05-01T05:13:15.136Z,3
2023-05-01T05:14:14.303Z,3
2023-05-01T05:15:14.676Z,3
2023-05-01T05:16:14.980Z,3
2023-05-01T05:17:14.764Z,7
2023-05-01T05:18:15.575Z,7
2023-05-01T05:19:14.405Z,7
2023-05-01T05:20:14.907Z,7
2023-05-01T05:21:15.265Z,7
2023-05-01T05:22:14.383Z,3
2023-05-01T05:23:16.874Z,3
2023-05-01T05:24:14.638Z,3
2023-05-01T05:25:15.282Z,3
2023-05-01T05:26:15.150Z,3
2023-05-01T05:27:14.207Z,1
2023-05-01T05:28:14.912Z,1
2023-05-01T05:29:15.081Z,1
2023-05-01T05:30:14.464Z,1
2023-05-01T05:31:14.886Z,1
2023-05-01T05:32:14.837Z,5
2023-05-01T05:33:14.989Z,5
2023-05-01T05:34:15.161Z,5
2023-05-01T05:35:15.179Z,5
2023-05-01T05:36:14.216Z,5
2023-05-01T05:37:14.604Z,4
2023-05-01T05:38:14.723Z,4
2023-05-01T05:39:14.472Z,4
2023-05-01T05:40:14.478Z,4
2023-05-01T05:41:14.708Z,4
2023-05-01T05:42:15.071Z,5
2023-05-01T05:43:14.732Z,5
2023-05-01T05:44:15.002Z,5
2023-05-01T05:45:15.649Z,5
2023-05-01T05:46:14.894Z,5
2023-05-01T05:47:14.953Z,1
2023-05-01T05:48:15.233Z,1
2023-05-01T05:49:15.173Z,1
2023-05-01T05:50:14.828Z,1
2023-05-01T05:51:14.857Z,1
2023-05-01T05:52:15.179Z,4
2023-05-01T05:53:14.305Z,4
2023-05-01T05:54:14.663Z,4
2023-05-01T05:55:15.136Z,4
2023-05-01T05:56:14.269Z,4
2023-05-01T05:57:14.823Z,4
2023-05-01T05:58:15.019Z,4
2023-05-01T05:59:17.370Z,4
2023-05-01T06:00:14.728Z,4
2023-05-01T06:01:14.982Z,4
2023-05-01T06:02:15.312Z,5
2023-05-01T06:03:15.107Z,5
2023-05-01T06:04:14.776Z,5
2023-05-01T06:05:14.507Z,5
2023-05-01T06:06:15.429Z,5
2023-05-01T06:07:15.121Z,3
2023-05-01T06:08:14.260Z,3
2023-05-01T06:09:14.604Z,3
2023-05-01T06:10:14.772Z,3
2023-05-01T06:11:14.568Z,3
2023-05-01T06:12:14.600Z,1
2023-05-01T06:13:23.159Z,1
2023-05-01T06:15:15.516Z,1
2023-05-01T06:16:15.273Z,1
2023-05-01T06:17:15.075Z,4
2023-05-01T06:18:15.731Z,4
2023-05-01T06:19:14.371Z,4
2023-05-01T06:20:15.327Z,4
2023-05-01T06:21:14.297Z,4
2023-05-01T06:22:14.951Z,3
2023-05-01T06:23:14.503Z,3
2023-05-01T06:24:14.737Z,3
2023-05-01T06:25:15.175Z,3
2023-05-01T06:26:14.494Z,3
2023-05-01T06:27:15.083Z,3
2023-05-01T06:28:14.304Z,3
2023-05-01T06:29:14.703Z,3
2023-05-01T06:30:15.109Z,3
2023-05-01T06:31:14.947Z,3
2023-05-01T06:32:14.788Z,6
2023-05-01T06:33:15.374Z,6
2023-05-01T06:34:15.154Z,6
2023-05-01T06:35:14.638Z,6
2023-05-01T06:36:15.000Z,6
2023-05-01T06:37:15.157Z,1
2023-05-01T06:38:14.359Z,1
2023-05-01T06:39:14.610Z,1
2023-05-01T06:40:15.131Z,1
2023-05-01T06:41:15.039Z,1
2023-05-01T06:42:15.075Z,3
2023-05-01T06:43:14.531Z,3
2023-05-01T06:44:14.898Z,3
2023-05-01T06:45:14.928Z,3
2023-05-01T06:46:14.594Z,3
2023-05-01T06:47:15.062Z,4
2023-05-01T06:48:15.444Z,4
2023-05-01T06:49:14.272Z,4
2023-05-01T06:50:14.800Z,4
2023-05-01T06:51:14.690Z,4
2023-05-01T06:52:15.067Z,5
2023-05-01T06:53:15.082Z,5
2023-05-01T06:54:14.335Z,5
2023-05-01T06:55:14.256Z,5
2023-05-01T06:56:14.676Z,5
2023-05-01T06:57:15.047Z,3
2023-05-01T06:58:30.947Z,3
2023-05-01T07:00:15.110Z,3
2023-05-01T07:01:14.502Z,3
2023-05-01T07:02:15.170Z,4
2023-05-01T07:03:15.270Z,4
2023-05-01T07:04:14.368Z,4
2023-05-01T07:05:15.052Z,4
2023-05-01T07:06:15.400Z,4
2023-05-01T07:07:14.446Z,5
2023-05-01T07:08:14.769Z,5
2023-05-01T07:09:15.035Z,5
2023-05-01T07:10:14.491Z,5
2023-05-01T07:11:14.512Z,5
2023-05-01T07:12:15.236Z,3
2023-05-01T07:13:15.355Z,3
2023-05-01T07:14:14.577Z,3
2023-05-01T07:15:14.646Z,3
2023-05-01T07:16:14.937Z,3
2023-05-01T07:17:14.897Z,4
2023-05-01T07:18:15.522Z,4
2023-05-01T07:19:15.107Z,4
2023-05-01T07:20:14.761Z,4
2023-05-01T07:21:15.064Z,4
2023-05-01T07:22:14.630Z,6
2023-05-01T07:23:16.246Z,6
2023-05-01T07:24:15.147Z,6
2023-05-01T07:25:15.077Z,6
2023-05-01T07:26:14.503Z,6
2023-05-01T07:27:14.758Z,8
2023-05-01T07:28:15.841Z,8
2023-05-01T07:29:14.161Z,8
2023-05-01T07:30:14.465Z,8
2023-05-01T07:31:13.446Z,8
2023-05-01T07:32:15.317Z,4
2023-05-01T07:33:15.291Z,4
2023-05-01T07:34:15.092Z,4
2023-05-01T07:35:14.540Z,4
2023-05-01T07:36:15.255Z,4
2023-05-01T07:37:14.670Z,3
2023-05-01T07:38:14.712Z,3
2023-05-01T07:39:14.878Z,3
2023-05-01T07:40:14.160Z,3
2023-05-01T07:41:14.732Z,3
2023-05-01T07:42:15.186Z,5
2023-05-01T07:43:14.883Z,5
2023-05-01T07:44:15.097Z,5
2023-05-01T07:45:14.432Z,5
2023-05-01T07:46:14.687Z,5
2023-05-01T07:47:14.841Z,9
2023-05-01T07:48:15.916Z,9
2023-05-01T07:49:14.324Z,9
2023-05-01T07:50:14.782Z,9
2023-05-01T07:51:14.863Z,9
2023-05-01T07:52:14.644Z,5
2023-05-01T07:53:14.891Z,5
2023-05-01T07:54:14.285Z,5
2023-05-01T07:55:14.869Z,5
2023-05-01T07:56:14.383Z,5
2023-05-01T07:57:14.876Z,11
2023-05-01T07:58:15.075Z,11
2023-05-01T07:59:14.437Z,11
2023-05-01T08:00:14.846Z,11
2023-05-01T08:01:14.366Z,11
2023-05-01T08:02:14.936Z,5
2023-05-01T08:03:16.164Z,5
2023-05-01T08:04:14.847Z,5
2023-05-01T08:05:14.356Z,5
2023-05-01T08:06:14.882Z,5
2023-05-01T08:07:14.421Z,6
2023-05-01T08:08:14.412Z,6
2023-05-01T08:09:14.840Z,6
2023-05-01T08:10:15.303Z,6
2023-05-01T08:11:14.709Z,6
2023-05-01T08:12:15.139Z,3
2023-05-01T08:13:15.196Z,3
2023-05-01T08:14:14.296Z,3
2023-05-01T08:15:14.556Z,3
2023-05-01T08:16:14.901Z,3
2023-05-01T08:17:15.072Z,11
2023-05-01T08:18:14.680Z,11
2023-05-01T08:19:14.560Z,11
2023-05-01T08:20:15.075Z,11
2023-05-01T08:21:15.160Z,11
2023-05-01T08:22:14.647Z,8
2023-05-01T08:23:14.673Z,8
2023-05-01T08:24:15.225Z,8
2023-05-01T08:25:14.709Z,8
2023-05-01T08:26:14.539Z,8
2023-05-01T08:27:14.737Z,1
2023-05-01T08:28:15.079Z,1
2023-05-01T08:29:15.022Z,1
2023-05-01T08:30:14.871Z,1
2023-05-01T08:31:15.454Z,1
2023-05-01T08:32:14.308Z,1
2023-05-01T08:33:45.415Z,1
2023-05-01T08:34:14.689Z,1
2023-05-01T08:35:15.093Z,1
2023-05-01T08:36:14.283Z,1
2023-05-01T08:37:14.312Z,3
2023-05-01T08:38:14.821Z,3
2023-05-01T08:39:15.128Z,3
2023-05-01T08:40:14.462Z,3
2023-05-01T08:41:14.521Z,3
2023-05-01T08:42:15.051Z,3
2023-05-01T08:43:15.059Z,3
2023-05-01T08:44:14.483Z,3
2023-05-01T08:45:14.601Z,3
2023-05-01T08:46:14.800Z,3
2023-05-01T08:47:15.941Z,6
2023-05-01T08:48:14.662Z,6
2023-05-01T08:49:14.446Z,6
2023-05-01T08:50:14.834Z,6
2023-05-01T08:51:15.042Z,6
2023-05-01T08:52:14.394Z,4
2023-05-01T08:53:14.741Z,4
2023-05-01T08:54:14.956Z,4
2023-05-01T08:55:14.846Z,4
2023-05-01T08:56:14.854Z,4
2023-05-01T08:57:17.560Z,3
2023-05-01T08:58:14.467Z,3
2023-05-01T08:59:15.373Z,3
2023-05-01T09:00:15.298Z,3
2023-05-01T09:01:14.813Z,3
2023-05-01T09:02:15.321Z,6
2023-05-01T09:03:15.609Z,6
2023-05-01T09:04:15.439Z,6
2023-05-01T09:05:14.498Z,6
2023-05-01T09:06:14.997Z,6
2023-05-01T09:07:14.893Z,3
2023-05-01T09:08:14.416Z,3
2023-05-01T09:09:14.741Z,3
2023-05-01T09:10:15.100Z,3
2023-05-01T09:11:14.412Z,3
2023-05-01T09:12:14.861Z,4
2023-05-01T09:13:14.967Z,4
2023-05-01T09:14:14.432Z,4
2023-05-01T09:15:14.722Z,4
2023-05-01T09:16:14.697Z,4
2023-05-01T09:17:14.789Z,6
2023-05-01T09:18:15.479Z,6
2023-05-01T09:19:14.259Z,6
2023-05-01T09:20:14.656Z,6
2023-05-01T09:21:14.832Z,6
2023-05-01T09:22:14.981Z,4
2023-05-01T09:23:14.554Z,4
2023-05-01T09:24:14.728Z,4
2023-05-01T09:25:14.884Z,4
2023-05-01T09:26:14.391Z,4
2023-05-01T09:27:14.816Z,4
2023-05-01T09:28:14.923Z,4
2023-05-01T09:29:15.121Z,4
2023-05-01T09:30:14.437Z,4
2023-05-01T09:31:14.902Z,4
2023-05-01T09:32:15.333Z,3
2023-05-01T09:33:15.837Z,3
2023-05-01T09:34:14.883Z,3
2023-05-01T09:35:14.726Z,3
2023-05-01T09:36:14.911Z,3
2023-05-01T09:37:14.503Z,8
2023-05-01T09:38:14.627Z,8
2023-05-01T09:39:14.927Z,8
2023-05-01T09:40:15.371Z,8
2023-05-01T09:41:14.366Z,8
2023-05-01T09:42:14.668Z,7
2023-05-01T09:43:16.012Z,7
2023-05-01T09:44:15.250Z,7
2023-05-01T09:45:14.418Z,7
2023-05-01T09:46:14.525Z,7
2023-05-01T09:47:14.927Z,1
2023-05-01T09:48:15.424Z,1
2023-05-01T09:49:14.338Z,1
2023-05-01T09:50:14.533Z,1
2023-05-01T09:51:14.576Z,1
2023-05-01T09:52:14.673Z,1
2023-05-01T09:53:15.237Z,1
2023-05-01T09:54:14.488Z,1
2023-05-01T09:55:14.589Z,1
2023-05-01T09:56:14.864Z,1
2023-05-01T09:57:14.970Z,3
2023-05-01T09:58:15.178Z,3
2023-05-01T09:59:14.314Z,3
2023-05-01T10:00:14.698Z,3
2023-05-01T10:01:15.316Z,3
2023-05-01T10:02:15.545Z,6
2023-05-01T10:03:16.327Z,6
2023-05-01T10:04:15.074Z,6
2023-05-01T10:05:14.693Z,6
2023-05-01T10:06:15.235Z,6
2023-05-01T10:07:14.473Z,5
2023-05-01T10:08:14.451Z,5
2023-05-01T10:09:15.108Z,5
2023-05-01T10:10:14.953Z,5
2023-05-01T10:11:14.247Z,5
2023-05-01T10:12:14.657Z,7
2023-05-01T10:13:15.081Z,7
2023-05-01T10:14:15.152Z,7
2023-05-01T10:15:32.078Z,7
2023-05-01T10:17:15.305Z,11
2023-05-01T10:18:15.492Z,11
2023-05-01T10:19:14.457Z,11
2023-05-01T10:20:14.865Z,11
2023-05-01T10:21:14.996Z,11
2023-05-01T10:22:15.155Z,5
2023-05-01T10:23:15.092Z,5
2023-05-01T10:24:14.633Z,5
2023-05-01T10:25:14.739Z,5
2023-05-01T10:26:15.593Z,5
2023-05-01T10:27:14.805Z,8
2023-05-01T10:28:14.830Z,8
2023-05-01T10:29:14.297Z,8
2023-05-01T10:30:14.703Z,8
2023-05-01T10:31:14.957Z,8
2023-05-01T10:32:14.803Z,8
2023-05-01T10:33:15.372Z,8
2023-05-01T10:34:15.189Z,8
2023-05-01T10:35:14.438Z,8
2023-05-01T10:36:14.619Z,8
2023-05-01T10:37:14.695Z,5
2023-05-01T10:38:14.817Z,5
2023-05-01T10:39:14.389Z,5
2023-05-01T10:40:14.703Z,5
2023-05-01T10:41:15.026Z,5
2023-05-01T10:42:14.189Z,9
2023-05-01T10:43:14.276Z,9
2023-05-01T10:44:14.409Z,9
2023-05-01T10:45:14.953Z,9
2023-05-01T10:46:14.740Z,9
2023-05-01T10:47:14.468Z,4
2023-05-01T10:48:15.056Z,4
2023-05-01T10:49:15.068Z,4
2023-05-01T10:50:14.233Z,4
2023-05-01T10:51:14.589Z,4
2023-05-01T10:52:14.600Z,8
2023-05-01T10:53:15.068Z,8
2023-05-01T10:54:14.791Z,8
2023-05-01T10:55:14.470Z,8
2023-05-01T10:56:14.397Z,8
2023-05-01T10:57:14.645Z,12
2023-05-01T10:58:14.935Z,12
2023-05-01T10:59:14.232Z,12
2023-05-01T11:00:14.561Z,12
2023-05-01T11:01:14.887Z,12
2023-05-01T11:02:15.337Z,3
2023-05-01T11:03:14.551Z,3
2023-05-01T11:04:14.438Z,3
2023-05-01T11:05:15.078Z,3
2023-05-01T11:06:15.923Z,3
2023-05-01T11:07:15.904Z,1
2023-05-01T11:08:14.570Z,1
2023-05-01T11:09:14.484Z,1
2023-05-01T11:10:15.200Z,1
2023-05-01T11:11:14.175Z,1
2023-05-01T11:12:14.627Z,5
2023-05-01T11:13:15.094Z,5
2023-05-01T11:14:14.508Z,5
2023-05-01T11:15:15.124Z,5
2023-05-01T11:16:14.305Z,5
2023-05-01T11:17:14.702Z,3
2023-05-01T11:18:15.352Z,3
2023-05-01T11:19:14.507Z,3
2023-05-01T11:20:14.889Z,3
2023-05-01T11:21:14.293Z,3
2023-05-01T11:22:14.601Z,6
2023-05-01T11:23:14.750Z,6
2023-05-01T11:24:14.447Z,6
2023-05-01T11:25:15.019Z,6
2023-05-01T11:26:14.274Z,6
2023-05-01T11:27:14.645Z,6
2023-05-01T11:28:15.436Z,6
2023-05-01T11:29:14.504Z,6
2023-05-01T11:30:15.272Z,6
2023-05-01T11:31:14.553Z,6
2023-05-01T11:32:15.019Z,5
2023-05-01T11:33:18.164Z,5
2023-05-01T11:34:14.356Z,5
2023-05-01T11:35:14.947Z,5
2023-05-01T11:36:14.526Z,5
2023-05-01T11:37:14.772Z,5
2023-05-01T11:38:14.060Z,5
2023-05-01T11:39:14.394Z,5
2023-05-01T11:40:15.129Z,5
2023-05-01T11:41:14.271Z,5
2023-05-01T11:42:14.869Z,1
2023-05-01T11:43:14.088Z,1
2023-05-01T11:44:14.540Z,1
2023-05-01T11:45:15.141Z,1
2023-05-01T11:46:14.613Z,1
2023-05-01T11:47:15.450Z,8
2023-05-01T11:48:14.689Z,8
2023-05-01T11:49:14.646Z,8
2023-05-01T11:50:15.186Z,8
2023-05-01T11:51:14.277Z,8
2023-05-01T11:52:14.687Z,3
2023-05-01T11:53:14.218Z,3
2023-05-01T11:54:16.625Z,3
2023-05-01T11:55:15.248Z,3
2023-05-01T11:56:31.516Z,3
2023-05-01T11:58:14.233Z,3
2023-05-01T11:59:14.840Z,3
2023-05-01T12:00:15.280Z,3
2023-05-01T12:01:14.418Z,3
2023-05-01T12:02:15.034Z,3
2023-05-01T12:03:16.813Z,3
2023-05-01T12:04:14.576Z,3
2023-05-01T12:05:14.777Z,3
2023-05-01T12:06:14.320Z,3
2023-05-01T12:07:14.484Z,4
2023-05-01T12:08:14.773Z,4
2023-05-01T12:09:15.092Z,4
2023-05-01T12:10:14.436Z,4
2023-05-01T12:11:14.256Z,4
2023-05-01T12:12:14.943Z,1
2023-05-01T12:13:15.056Z,1
2023-05-01T12:14:14.207Z,1
2023-05-01T12:15:14.536Z,1
2023-05-01T12:16:14.839Z,1
2023-05-01T12:17:15.457Z,7
2023-05-01T12:18:15.340Z,7
2023-05-01T12:19:15.018Z,7
2023-05-01T12:20:14.640Z,7
2023-05-01T12:21:14.732Z,7
2023-05-01T12:22:14.228Z,4
2023-05-01T12:23:14.721Z,4
2023-05-01T12:24:14.872Z,4
2023-05-01T12:25:14.543Z,4
2023-05-01T12:26:14.484Z,4
2023-05-01T12:27:14.866Z,9
2023-05-01T12:28:14.734Z,9
2023-05-01T12:29:14.833Z,9
2023-05-01T12:30:14.328Z,9
2023-05-01T12:31:14.913Z,9
2023-05-01T12:32:15.757Z,12
2023-05-01T12:33:14.737Z,12
2023-05-01T12:34:14.695Z,12
2023-05-01T12:35:15.137Z,12
2023-05-01T12:36:15.100Z,12
2023-05-01T12:37:15.070Z,8
2023-05-01T12:38:14.480Z,8
2023-05-01T12:39:14.660Z,8
2023-05-01T12:40:14.985Z,8
2023-05-01T12:41:15.002Z,8
2023-05-01T12:42:14.336Z,5
2023-05-01T12:43:14.615Z,5
2023-05-01T12:44:14.978Z,5
2023-05-01T12:45:14.124Z,5
2023-05-01T12:46:14.932Z,5
2023-05-01T12:47:14.745Z,7
2023-05-01T12:48:15.327Z,7
2023-05-01T12:49:14.222Z,7
2023-05-01T12:50:14.773Z,7
2023-05-01T12:51:15.030Z,7
2023-05-01T12:52:14.513Z,8
2023-05-01T12:53:14.734Z,8
2023-05-01T12:54:15.095Z,8
2023-05-01T12:55:14.456Z,8
2023-05-01T12:56:14.509Z,8
2023-05-01T12:57:14.870Z,5
2023-05-01T12:58:15.174Z,5
2023-05-01T12:59:14.407Z,5
2023-05-01T13:00:14.834Z,5
2023-05-01T13:01:15.388Z,5
2023-05-01T13:02:15.767Z,9
2023-05-01T13:03:14.905Z,9
2023-05-01T13:04:14.678Z,9
2023-05-01T13:05:14.719Z,9
2023-05-01T13:06:14.821Z,9
2023-05-01T13:07:15.233Z,6
2023-05-01T13:08:14.284Z,6
2023-05-01T13:09:14.284Z,6
2023-05-01T13:10:14.774Z,6
2023-05-01T13:11:15.036Z,6
2023-05-01T13:12:15.175Z,4
2023-05-01T13:13:14.366Z,4
2023-05-01T13:14:14.970Z,4
2023-05-01T13:15:15.033Z,4
2023-05-01T13:16:15.292Z,4
2023-05-01T13:17:17.871Z,12
2023-05-01T13:18:14.826Z,12
2023-05-01T13:19:14.881Z,12
2023-05-01T13:20:15.310Z,12
2023-05-01T13:21:14.775Z,12
2023-05-01T13:22:13.651Z,11
2023-05-01T13:23:15.224Z,11
2023-05-01T13:24:15.187Z,11
2023-05-01T13:25:14.246Z,11
2023-05-01T13:26:15.133Z,11
2023-05-01T13:27:14.368Z,5
2023-05-01T13:28:14.480Z,5
2023-05-01T13:29:14.744Z,5
2023-05-01T13:30:15.432Z,5
2023-05-01T13:31:14.457Z,5
2023-05-01T13:32:15.569Z,11
2023-05-01T13:33:15.407Z,11
2023-05-01T13:34:14.250Z,11
2023-05-01T13:35:14.830Z,11
2023-05-01T13:36:33.660Z,11
2023-05-01T13:38:14.166Z,14
2023-05-01T13:39:14.681Z,14
2023-05-01T13:40:15.018Z,14
2023-05-01T13:41:15.186Z,14
2023-05-01T13:42:14.239Z,11
2023-05-01T13:43:14.812Z,11
2023-05-01T13:44:15.184Z,11
2023-05-01T13:45:14.392Z,11
2023-05-01T13:46:14.849Z,11
2023-05-01T13:47:14.955Z,15
2023-05-01T13:48:15.515Z,15
2023-05-01T13:49:14.397Z,15
2023-05-01T13:50:14.725Z,15
2023-05-01T13:51:14.922Z,15
2023-05-01T13:52:15.190Z,17
2023-05-01T13:53:14.336Z,17
2023-05-01T13:54:14.610Z,17
2023-05-01T13:55:15.328Z,17
2023-05-01T13:56:14.893Z,17
2023-05-01T13:57:15.157Z,11
2023-05-01T13:58:14.340Z,11
2023-05-01T13:59:14.176Z,11
2023-05-01T14:00:14.723Z,11
2023-05-01T14:01:15.106Z,11
2023-05-01T14:02:15.248Z,17
2023-05-01T14:03:15.901Z,17
2023-05-01T14:04:14.648Z,17
2023-05-01T14:05:15.309Z,17
2023-05-01T14:06:15.530Z,17
2023-05-01T14:07:14.496Z,13
2023-05-01T14:08:14.900Z,13
2023-05-01T14:09:15.194Z,13
2023-05-01T14:10:14.429Z,13
2023-05-01T14:11:14.847Z,13
2023-05-01T14:12:14.923Z,13
2023-05-01T14:13:14.279Z,13
2023-05-01T14:14:14.506Z,13
2023-05-01T14:15:14.830Z,13
2023-05-01T14:16:15.314Z,13
2023-05-01T14:17:15.047Z,14
2023-05-01T14:18:14.823Z,14
2023-05-01T14:19:14.749Z,14
2023-05-01T14:20:15.155Z,14
2023-05-01T14:21:13.771Z,14
2023-05-01T14:22:14.964Z,11
2023-05-01T14:23:15.105Z,11
2023-05-01T14:24:14.420Z,11
2023-05-01T14:25:14.610Z,11
2023-05-01T14:26:15.114Z,11
2023-05-01T14:27:14.298Z,9
2023-05-01T14:28:14.776Z,9
2023-05-01T14:29:15.018Z,9
2023-05-01T14:30:14.394Z,9
2023-05-01T14:31:14.483Z,9
2023-05-01T14:32:14.669Z,14
2023-05-01T14:33:15.489Z,14
2023-05-01T14:34:14.166Z,14
2023-05-01T14:35:14.622Z,14
2023-05-01T14:36:15.135Z,14
2023-05-01T14:37:14.339Z,9
2023-05-01T14:38:14.586Z,9
2023-05-01T14:39:14.625Z,9
2023-05-01T14:40:15.214Z,9
2023-05-01T14:41:17.187Z,9
2023-05-01T14:42:14.463Z,12
2023-05-01T14:43:14.692Z,12
2023-05-01T14:44:15.114Z,12
2023-05-01T14:45:14.975Z,12
2023-05-01T14:46:14.802Z,12
2023-05-01T14:47:14.714Z,12
2023-05-01T14:48:15.042Z,12
2023-05-01T14:49:14.977Z,12